createdAt,value
2018-10-18T00:00:37.764Z,63.23
2018-10-18T00:03:12.382Z,59.83
2018-10-18T00:05:53.367Z,62.70
2018-10-18T00:08:28.077Z,67.37
2018-10-18T00:11:03.049Z,62.93
2018-10-18T00:13:37.684Z,63.30
2018-10-18T00:16:12.537Z,61.08
2018-10-18T00:18:46.966Z,63.27
2018-10-18T00:21:21.688Z,65.80
2018-10-18T00:23:56.521Z,62.47
2018-10-18T00:26:38.356Z,65.70
2018-10-18T00:29:19.918Z,66.07
2018-10-18T00:32:09.299Z,63.60
2018-10-18T00:34:44.240Z,63.13
2018-10-18T00:37:19.187Z,65.47
2018-10-18T00:39:53.721Z,69.60
2018-10-18T00:42:28.370Z,69.37
2018-10-18T00:45:02.960Z,68.80
2018-10-18T00:47:37.539Z,68.63
2018-10-18T00:50:12.779Z,71.07
2018-10-18T00:52:47.739Z,70.22
2018-10-18T00:55:22.300Z,66.37
2018-10-18T00:57:56.993Z,61.70
2018-10-18T01:00:32.029Z,58.70
2018-10-18T01:03:06.510Z,59.83
2018-10-18T01:05:40.986Z,58.73
2018-10-18T01:08:15.527Z,58.40
2018-10-18T01:10:50.104Z,57.90
2018-10-18T01:13:25.235Z,61.73
2018-10-18T01:15:59.773Z,62.33
2018-10-18T01:18:34.480Z,61.77
2018-10-18T01:21:09.109Z,64.03
2018-10-18T01:23:43.985Z,65.97
2018-10-18T01:26:18.789Z,66.67
2018-10-18T01:28:53.340Z,64.87
2018-10-18T01:31:28.160Z,65.57
2018-10-18T01:34:02.992Z,65.75
2018-10-18T01:36:37.636Z,66.33
2018-10-18T01:39:12.278Z,68.60
2018-10-18T01:41:46.800Z,67.43
2018-10-18T01:44:21.489Z,65.50
2018-10-18T01:46:56.200Z,68.27
2018-10-18T01:49:30.754Z,68.63
2018-10-18T01:52:05.650Z,72.13
2018-10-18T01:54:47.776Z,70.80
2018-10-18T01:57:22.857Z,70.43
2018-10-18T01:59:57.472Z,72.07
2018-10-18T02:02:32.098Z,69.93
2018-10-18T02:05:10.557Z,71.45
2018-10-18T02:07:45.145Z,75.05
2018-10-18T02:10:19.757Z,75.00
2018-10-18T02:12:54.436Z,81.07
2018-10-18T02:15:29.399Z,83.00
2018-10-18T02:18:04.241Z,82.63
2018-10-18T02:20:39.005Z,81.67
2018-10-18T02:23:13.929Z,85.63
2018-10-18T02:25:48.595Z,85.63
2018-10-18T02:28:23.194Z,83.17
2018-10-18T02:30:58.093Z,85.23
2018-10-18T02:33:32.708Z,79.15
2018-10-18T02:36:27.092Z,78.33
2018-10-18T02:39:05.402Z,76.57
2018-10-18T02:41:40.020Z,78.62
2018-10-18T02:44:15.264Z,76.30
2018-10-18T02:46:50.330Z,81.30
2018-10-18T02:49:24.852Z,79.30
2018-10-18T02:52:02.364Z,78.27
2018-10-18T02:54:42.359Z,77.67
2018-10-18T02:57:17.161Z,74.77
2018-10-18T02:59:51.796Z,75.30
2018-10-18T03:02:42.605Z,67.77
2018-10-18T03:05:17.324Z,68.20
2018-10-18T03:07:52.363Z,72.50
2018-10-18T03:10:27.737Z,66.50
2018-10-18T03:13:02.416Z,63.63
2018-10-18T03:15:44.200Z,62.20
2018-10-18T03:18:30.242Z,59.03
2018-10-18T03:21:04.946Z,59.57
2018-10-18T03:23:43.228Z,57.53
2018-10-18T03:26:23.285Z,52.73
2018-10-18T03:28:57.833Z,47.10
2018-10-18T03:31:33.546Z,50.37
2018-10-18T03:37:07.636Z,49.20
2018-10-18T03:39:42.603Z,49.13
2018-10-18T03:42:33.505Z,49.17
2018-10-18T03:45:08.672Z,49.03
2018-10-18T03:48:02.183Z,49.50
2018-10-18T03:50:37.117Z,49.33
2018-10-18T03:53:17.833Z,48.33
2018-10-18T03:55:52.477Z,43.67
2018-10-18T03:58:30.392Z,47.07
2018-10-18T04:01:12.541Z,46.07
2018-10-18T04:03:47.103Z,45.67
2018-10-18T04:06:22.117Z,45.20
2018-10-18T04:08:56.489Z,45.77
2018-10-18T04:11:31.772Z,43.87
2018-10-18T04:14:07.121Z,46.23
2018-10-18T04:16:41.864Z,43.28
2018-10-18T04:19:17.728Z,44.60
2018-10-18T04:21:52.741Z,44.50
2018-10-18T04:24:27.574Z,47.77
2018-10-18T04:27:02.288Z,46.28
2018-10-18T04:29:36.956Z,45.43
2018-10-18T04:32:11.501Z,45.53
2018-10-18T04:34:46.381Z,45.73
2018-10-18T04:37:37.836Z,45.80
2018-10-18T04:40:12.740Z,43.90
2018-10-18T04:42:47.644Z,47.43
2018-10-18T04:45:22.977Z,46.53
2018-10-18T04:47:58.131Z,46.57
2018-10-18T04:50:32.468Z,45.90
2018-10-18T04:53:07.139Z,45.10
2018-10-18T04:55:41.753Z,45.13
2018-10-18T04:58:16.440Z,44.10
2018-10-18T05:00:50.956Z,45.90
2018-10-18T05:03:25.835Z,44.30
2018-10-18T05:06:01.953Z,43.80
2018-10-18T05:08:36.400Z,45.07
2018-10-18T05:11:18.650Z,45.17
2018-10-18T05:13:55.193Z,46.03
2018-10-18T05:16:30.016Z,46.50
2018-10-18T05:19:05.093Z,46.30
2018-10-18T05:21:39.625Z,46.27
2018-10-18T05:24:14.084Z,45.40
2018-10-18T05:26:48.720Z,46.33
2018-10-18T05:29:23.604Z,48.03
2018-10-18T05:31:58.437Z,47.60
2018-10-18T05:34:33.168Z,45.80
2018-10-18T05:37:07.753Z,46.57
2018-10-18T05:39:42.398Z,45.63
2018-10-18T05:42:17.329Z,44.87
2018-10-18T05:44:52.315Z,44.20
2018-10-18T05:47:26.882Z,45.53
2018-10-18T05:50:01.753Z,45.07
2018-10-18T05:52:36.158Z,44.67
2018-10-18T05:55:11.820Z,44.90
2018-10-18T05:57:46.706Z,42.70
2018-10-18T06:00:21.614Z,44.07
2018-10-18T06:02:56.216Z,43.00
2018-10-18T06:05:31.143Z,43.53
2018-10-18T06:08:05.832Z,40.70
2018-10-18T06:10:51.569Z,40.37
2018-10-18T06:13:26.090Z,41.60
2018-10-18T06:16:00.728Z,41.13
2018-10-18T06:18:35.350Z,39.80
2018-10-18T06:21:09.987Z,39.50
2018-10-18T06:23:45.273Z,39.77
2018-10-18T06:26:20.409Z,40.53
2018-10-18T06:28:55.524Z,39.23
2018-10-18T06:31:30.343Z,38.03
2018-10-18T06:34:05.281Z,38.40
2018-10-18T06:36:39.819Z,38.87
2018-10-18T06:39:14.455Z,37.47
2018-10-18T06:41:48.833Z,37.37
2018-10-18T06:44:23.541Z,35.37
2018-10-18T06:46:58.934Z,36.07
2018-10-18T06:49:33.691Z,35.83
2018-10-18T06:52:08.316Z,44.17
2018-10-18T06:54:42.960Z,37.30
2018-10-18T06:57:17.523Z,36.25
2018-10-18T06:59:52.476Z,35.63
2018-10-18T07:02:27.331Z,35.70
2018-10-18T07:05:01.876Z,37.33
2018-10-18T07:07:37.146Z,35.03
2018-10-18T07:10:11.847Z,35.90
2018-10-18T07:12:46.488Z,32.03
2018-10-18T07:15:34.966Z,31.52
2018-10-18T07:18:09.670Z,30.63
2018-10-18T07:20:44.193Z,30.47
2018-10-18T07:23:18.813Z,30.37
2018-10-18T07:25:53.644Z,31.93
2018-10-18T07:28:28.183Z,30.90
2018-10-18T07:31:02.782Z,32.23
2018-10-18T07:33:37.481Z,30.83
2018-10-18T07:36:12.343Z,29.55
2018-10-18T07:41:23.652Z,30.03
2018-10-18T07:43:58.714Z,31.33
2018-10-18T07:46:34.635Z,32.10
2018-10-18T07:49:10.252Z,29.80
2018-10-18T07:51:44.843Z,30.20
2018-10-18T07:54:19.979Z,29.25
2018-10-18T07:56:54.520Z,27.82
2018-10-18T07:59:29.396Z,30.00
2018-10-18T08:02:04.304Z,27.43
2018-10-18T08:04:38.937Z,27.67
2018-10-18T08:07:13.688Z,25.95
2018-10-18T08:09:48.093Z,25.27
2018-10-18T08:12:22.664Z,25.27
2018-10-18T08:14:57.256Z,25.47
2018-10-18T08:17:32.049Z,25.57
2018-10-18T08:20:07.364Z,23.77
2018-10-18T08:22:42.657Z,22.93
2018-10-18T08:25:17.255Z,24.33
2018-10-18T08:27:51.765Z,24.93
2018-10-18T08:30:26.403Z,25.88
2018-10-18T08:33:01.433Z,25.03
2018-10-18T08:35:35.990Z,23.80
2018-10-18T08:38:10.605Z,24.15
2018-10-18T08:40:45.058Z,23.83
2018-10-18T08:43:20.403Z,23.57
2018-10-18T08:45:55.202Z,23.90
2018-10-18T08:48:29.741Z,25.13
2018-10-18T08:51:04.318Z,24.53
2018-10-18T08:53:38.736Z,26.60
2018-10-18T08:56:13.822Z,27.60
2018-10-18T08:58:48.488Z,26.80
2018-10-18T09:01:22.996Z,30.20
2018-10-18T09:03:57.537Z,33.20
2018-10-18T09:06:32.051Z,32.80
2018-10-18T09:09:08.068Z,31.90
2018-10-18T09:11:42.550Z,33.42
2018-10-18T09:14:17.847Z,31.33
2018-10-18T09:16:52.376Z,32.63
2018-10-18T09:19:27.064Z,33.97
2018-10-18T09:22:01.701Z,32.75
2018-10-18T09:24:36.144Z,31.07
2018-10-18T09:27:10.682Z,24.60
2018-10-18T09:29:45.945Z,26.73
2018-10-18T09:32:20.816Z,23.17
2018-10-18T09:34:55.320Z,22.60
2018-10-18T09:37:30.176Z,22.07
2018-10-18T09:40:04.936Z,21.30
2018-10-18T09:42:39.864Z,23.50
2018-10-18T09:45:14.571Z,23.00
2018-10-18T09:47:49.546Z,21.70
2018-10-18T09:50:24.590Z,21.80
2018-10-18T09:52:59.439Z,22.70
2018-10-18T09:55:33.707Z,23.70
2018-10-18T09:58:08.819Z,24.03
2018-10-18T10:00:48.761Z,23.70
2018-10-18T10:03:23.388Z,25.07
2018-10-18T10:05:58.203Z,24.50
2018-10-18T10:08:46.190Z,25.40
2018-10-18T10:11:20.815Z,23.87
2018-10-18T10:13:55.196Z,24.10
2018-10-18T10:16:29.739Z,22.80
2018-10-18T10:19:11.380Z,23.20
2018-10-18T10:21:46.388Z,23.77
2018-10-18T10:24:21.399Z,24.67
2018-10-18T10:26:55.840Z,23.57
2018-10-18T10:29:30.697Z,20.32
2018-10-18T10:32:05.549Z,20.90
2018-10-18T10:34:40.496Z,21.43
2018-10-18T10:37:15.106Z,21.37
2018-10-18T10:39:49.632Z,20.80
2018-10-18T10:42:24.141Z,23.80
2018-10-18T10:44:59.218Z,24.77
2018-10-18T10:47:33.812Z,23.75
2018-10-18T10:50:09.180Z,23.50
2018-10-18T10:52:43.932Z,23.83
2018-10-18T10:55:18.591Z,23.83
2018-10-18T10:57:53.139Z,23.90
2018-10-18T11:01:05.591Z,24.45
2018-10-18T11:03:41.100Z,21.60
2018-10-18T11:06:15.825Z,20.73
2018-10-18T11:08:50.479Z,20.30
2018-10-18T11:11:25.420Z,19.87
2018-10-18T11:14:00.407Z,18.60
2018-10-18T11:16:35.067Z,19.77
2018-10-18T11:19:09.825Z,19.95
2018-10-18T11:21:44.714Z,18.00
2018-10-18T11:24:19.561Z,16.60
2018-10-18T11:26:53.996Z,14.77
2018-10-18T11:29:28.524Z,14.80
2018-10-18T11:32:03.129Z,14.78
2018-10-18T11:34:37.553Z,14.33
2018-10-18T11:37:12.149Z,12.50
2018-10-18T11:39:46.937Z,11.60
2018-10-18T11:42:24.055Z,8.55
2018-10-18T11:45:12.153Z,8.77
2018-10-18T11:47:53.184Z,8.20
2018-10-18T11:50:28.991Z,9.40
2018-10-18T11:53:03.694Z,10.77
2018-10-18T11:55:38.795Z,11.50
2018-10-18T12:01:14.887Z,13.07
2018-10-18T12:03:50.452Z,11.63
2018-10-18T12:06:24.929Z,12.07
2018-10-18T12:09:13.015Z,11.97
2018-10-18T12:11:47.587Z,13.20
2018-10-18T12:14:22.157Z,14.50
2018-10-18T12:16:56.714Z,14.50
2018-10-18T12:19:31.777Z,13.53
2018-10-18T12:22:08.415Z,13.60
2018-10-18T12:24:43.342Z,13.20
2018-10-18T12:27:18.380Z,13.47
2018-10-18T12:29:53.576Z,14.30
2018-10-18T12:32:28.040Z,14.60
2018-10-18T12:35:02.626Z,13.30
2018-10-18T12:37:37.290Z,12.77
2018-10-18T12:40:11.811Z,12.23
2018-10-18T12:42:56.451Z,11.95
2018-10-18T12:45:31.249Z,11.57
2018-10-18T12:48:06.631Z,12.03
2018-10-18T12:50:41.386Z,9.20
2018-10-18T12:53:16.208Z,10.57
2018-10-18T12:55:51.690Z,10.30
2018-10-18T12:58:26.067Z,9.75
2018-10-18T13:01:00.712Z,8.58
2018-10-18T13:03:35.239Z,8.60
2018-10-18T13:06:10.256Z,8.33
2018-10-18T13:08:44.785Z,8.93
2018-10-18T13:11:19.727Z,8.07
2018-10-18T13:13:54.324Z,8.47
2018-10-18T13:16:28.756Z,8.23
2018-10-18T13:19:10.928Z,8.03
2018-10-18T13:21:46.332Z,7.83
2018-10-18T13:24:21.200Z,7.30
2018-10-18T13:30:00.669Z,7.78
2018-10-18T13:32:35.277Z,7.80
2018-10-18T13:35:11.999Z,6.10
2018-10-18T13:37:46.477Z,5.80
2018-10-18T13:40:33.452Z,5.80
2018-10-18T13:43:07.828Z,5.03
2018-10-18T13:45:49.432Z,5.30
2018-10-18T13:48:23.858Z,4.13
2018-10-18T13:50:58.489Z,5.90
2018-10-18T13:53:38.851Z,5.80
2018-10-18T13:56:13.808Z,5.17
2018-10-18T13:58:48.254Z,5.07
2018-10-18T14:01:23.931Z,4.40
2018-10-18T14:03:59.832Z,4.78
2018-10-18T14:06:34.389Z,4.10
2018-10-18T14:09:08.864Z,4.17
2018-10-18T14:11:43.536Z,4.40
2018-10-18T14:14:18.465Z,4.63
2018-10-18T14:16:53.033Z,3.95
2018-10-18T14:19:27.725Z,4.13
2018-10-18T14:22:02.494Z,5.47
2018-10-18T14:24:37.188Z,5.22
2018-10-18T14:27:11.892Z,5.70
2018-10-18T14:29:47.494Z,5.83
2018-10-18T14:32:22.076Z,5.63
2018-10-18T14:34:57.003Z,5.37
2018-10-18T14:37:44.415Z,5.63
2018-10-18T14:40:19.069Z,6.00
2018-10-18T14:42:53.745Z,5.33
2018-10-18T14:45:28.313Z,6.13
2018-10-18T14:48:02.956Z,6.12
2018-10-18T14:50:37.535Z,5.70
2018-10-18T14:53:12.310Z,5.87
2018-10-18T14:55:48.133Z,9.60
2018-10-18T14:58:22.621Z,5.90
2018-10-18T15:01:00.718Z,5.43
2018-10-18T15:03:35.408Z,5.83
2018-10-18T15:06:09.931Z,5.70
2018-10-18T15:08:44.468Z,5.97
2018-10-18T15:11:19.004Z,6.20
2018-10-18T15:13:54.710Z,6.47
2018-10-18T15:16:29.168Z,6.03
2018-10-18T15:19:03.928Z,6.77
2018-10-18T15:21:38.536Z,6.47
2018-10-18T15:24:13.193Z,6.83
2018-10-18T15:26:47.812Z,7.03
2018-10-18T15:29:22.262Z,7.00
2018-10-18T15:31:56.797Z,6.67
2018-10-18T15:34:31.372Z,7.85
2018-10-18T15:37:06.814Z,6.70
2018-10-18T15:39:41.634Z,7.20
2018-10-18T15:42:16.078Z,7.22
2018-10-18T15:44:51.445Z,7.40
2018-10-18T15:47:27.245Z,7.00
2018-10-18T15:50:03.199Z,6.75
2018-10-18T15:52:38.313Z,7.17
2018-10-18T15:55:13.281Z,6.57
2018-10-18T15:57:48.364Z,6.03
2018-10-18T16:00:23.477Z,5.57
2018-10-18T16:02:58.048Z,5.83
2018-10-18T16:05:32.679Z,5.80
2018-10-18T16:08:07.194Z,5.13
2018-10-18T16:10:42.523Z,4.85
2018-10-18T16:13:17.284Z,4.00
2018-10-18T16:15:51.894Z,2.90
2018-10-18T16:18:26.556Z,2.73
2018-10-18T16:21:01.185Z,2.87
2018-10-18T16:23:36.045Z,3.17
2018-10-18T16:26:11.538Z,2.77
2018-10-18T16:28:46.144Z,2.97
2018-10-18T16:31:22.029Z,2.63
2018-10-18T16:33:59.742Z,3.70
2018-10-18T16:36:34.168Z,3.60
2018-10-18T16:39:10.724Z,3.35
2018-10-18T16:42:00.094Z,4.60
2018-10-18T16:44:34.957Z,4.80
2018-10-18T16:47:09.368Z,5.00
2018-10-18T16:49:44.032Z,5.60
2018-10-18T16:52:18.703Z,5.73
2018-10-18T16:54:53.368Z,5.77
2018-10-18T16:57:27.897Z,6.00
2018-10-18T17:00:02.410Z,5.90
2018-10-18T17:02:36.963Z,5.93
2018-10-18T17:05:11.628Z,6.37
2018-10-18T17:07:46.529Z,5.70
2018-10-18T17:10:21.169Z,6.17
2018-10-18T17:12:55.698Z,7.03
2018-10-18T17:15:30.305Z,6.33
2018-10-18T17:18:04.889Z,6.33
2018-10-18T17:20:39.680Z,6.93
2018-10-18T17:23:14.228Z,7.63
2018-10-18T17:25:48.738Z,7.00
2018-10-18T17:28:24.868Z,7.50
2018-10-18T17:30:59.769Z,7.23
2018-10-18T17:33:34.544Z,8.47
2018-10-18T17:36:09.231Z,8.67
2018-10-18T17:38:48.368Z,9.17
2018-10-18T17:41:22.823Z,10.00
2018-10-18T17:43:57.745Z,11.50
2018-10-18T17:46:32.056Z,11.60
2018-10-18T17:49:06.769Z,12.70
2018-10-18T17:51:41.297Z,12.17
2018-10-18T17:54:17.248Z,12.20
2018-10-18T17:56:51.868Z,13.40
2018-10-18T17:59:26.670Z,13.63
2018-10-18T18:02:02.008Z,13.57
2018-10-18T18:04:36.692Z,13.93
2018-10-18T18:07:11.520Z,12.37
2018-10-18T18:09:46.811Z,15.00
2018-10-18T18:12:21.797Z,13.57
2018-10-18T18:14:56.782Z,14.30
2018-10-18T18:17:31.523Z,14.38
2018-10-18T18:20:07.408Z,15.63
2018-10-18T18:22:42.054Z,15.57
2018-10-18T18:25:16.558Z,15.87
2018-10-18T18:27:51.397Z,16.03
2018-10-18T18:30:26.200Z,17.07
2018-10-18T18:33:04.199Z,16.37
2018-10-18T18:35:38.768Z,16.93
2018-10-18T18:38:13.436Z,17.93
2018-10-18T18:40:47.898Z,18.73
2018-10-18T18:43:22.814Z,18.87
2018-10-18T18:45:57.488Z,20.40
2018-10-18T18:48:31.980Z,19.07
2018-10-18T18:51:06.691Z,22.07
2018-10-18T18:53:41.502Z,20.93
2018-10-18T18:56:16.037Z,22.20
2018-10-18T18:58:50.426Z,22.17
2018-10-18T19:01:25.059Z,23.47
2018-10-18T19:03:59.576Z,23.17
2018-10-18T19:06:34.194Z,23.60
2018-10-18T19:09:09.449Z,22.48
2018-10-18T19:11:43.863Z,23.33
2018-10-18T19:14:20.783Z,20.70
2018-10-18T19:16:55.704Z,20.43
2018-10-18T19:19:30.088Z,21.80
2018-10-18T19:22:05.263Z,20.10
2018-10-18T19:24:40.021Z,20.37
2018-10-18T19:27:14.780Z,20.68
2018-10-18T19:29:49.284Z,20.70
2018-10-18T19:32:23.824Z,20.90
2018-10-18T19:34:58.756Z,19.40
2018-10-18T19:37:37.061Z,19.60
2018-10-18T19:40:11.641Z,20.50
2018-10-18T19:42:46.183Z,20.20
2018-10-18T19:45:20.796Z,18.43
2018-10-18T19:47:55.369Z,18.83
2018-10-18T19:50:29.972Z,20.07
2018-10-18T19:53:04.683Z,20.53
2018-10-18T19:55:39.302Z,21.75
2018-10-18T19:58:14.186Z,20.00
2018-10-18T20:00:48.793Z,19.37
2018-10-18T20:03:23.333Z,19.70
2018-10-18T20:05:57.844Z,19.90
2018-10-18T20:08:32.285Z,20.23
2018-10-18T20:11:07.178Z,20.03
2018-10-18T20:13:41.856Z,21.68
2018-10-18T20:16:16.377Z,20.93
2018-10-18T20:18:51.332Z,19.33
2018-10-18T20:21:26.232Z,21.03
2018-10-18T20:24:01.340Z,19.33
2018-10-18T20:26:35.951Z,19.47
2018-10-18T20:29:10.852Z,20.50
2018-10-18T20:31:45.368Z,20.63
2018-10-18T20:34:20.113Z,20.10
2018-10-18T20:36:54.616Z,20.83
2018-10-18T20:39:36.794Z,19.70
2018-10-18T20:42:11.155Z,18.83
2018-10-18T20:44:45.587Z,19.80
2018-10-18T20:47:20.452Z,19.93
2018-10-18T20:49:55.123Z,22.83
2018-10-18T20:52:29.594Z,21.90
2018-10-18T20:55:04.544Z,22.20
2018-10-18T20:57:38.952Z,22.30
2018-10-18T21:00:13.912Z,20.87
2018-10-18T21:02:48.353Z,21.43
2018-10-18T21:05:23.006Z,21.20
2018-10-18T21:07:57.472Z,22.63
2018-10-18T21:10:31.952Z,20.73
2018-10-18T21:13:06.644Z,19.75
2018-10-18T21:15:41.160Z,21.77
2018-10-18T21:18:15.620Z,21.77
2018-10-18T21:20:49.992Z,22.20
2018-10-18T21:23:24.855Z,20.88
2018-10-18T21:25:59.321Z,22.37
2018-10-18T21:28:33.983Z,21.63
2018-10-18T21:31:08.556Z,21.53
2018-10-18T21:33:43.097Z,20.37
2018-10-18T21:36:17.784Z,21.77
2018-10-18T21:38:52.472Z,22.40
2018-10-18T21:41:27.107Z,20.63
2018-10-18T21:44:02.324Z,20.97
2018-10-18T21:46:37.812Z,20.57
2018-10-18T21:49:30.460Z,20.47
2018-10-18T21:52:05.182Z,19.20
2018-10-18T21:54:39.624Z,18.93
2018-10-18T21:57:14.302Z,18.13
2018-10-18T21:59:48.841Z,19.30
2018-10-18T22:02:23.460Z,18.60
2018-10-18T22:04:58.176Z,18.37
2018-10-18T22:07:33.048Z,18.05
2018-10-18T22:10:07.512Z,18.37
2018-10-18T22:12:42.318Z,18.67
2018-10-18T22:15:16.808Z,18.60
2018-10-18T22:17:51.706Z,17.03
2018-10-18T22:20:26.332Z,16.57
2018-10-18T22:23:00.754Z,17.47
2018-10-18T22:25:35.259Z,16.40
2018-10-18T22:28:09.905Z,16.67
2018-10-18T22:30:44.542Z,17.03
2018-10-18T22:33:18.975Z,16.40
2018-10-18T22:35:53.748Z,15.70
2018-10-18T22:38:28.884Z,15.50
2018-10-18T22:41:08.412Z,16.25
2018-10-18T22:43:42.952Z,15.80
2018-10-18T22:46:17.353Z,15.80
2018-10-18T22:48:52.024Z,16.75
2018-10-18T22:51:26.766Z,15.53
2018-10-18T22:54:01.248Z,16.32
2018-10-18T22:56:36.196Z,15.93
2018-10-18T22:59:10.830Z,16.97
2018-10-18T23:01:45.456Z,16.83
2018-10-18T23:04:20.105Z,16.13
2018-10-18T23:06:54.740Z,17.70
2018-10-18T23:09:29.396Z,17.33
2018-10-18T23:12:05.108Z,18.42
2018-10-18T23:14:39.592Z,20.67
2018-10-18T23:17:14.238Z,20.45
2018-10-18T23:19:48.850Z,21.80
2018-10-18T23:22:23.423Z,22.20
2018-10-18T23:24:58.219Z,22.13
2018-10-18T23:27:32.937Z,22.70
2018-10-18T23:30:08.333Z,22.40
2018-10-18T23:32:43.081Z,23.87
2018-10-18T23:35:17.729Z,23.23
2018-10-18T23:37:52.441Z,23.17
2018-10-18T23:40:27.031Z,22.60
2018-10-18T23:43:01.440Z,22.93
2018-10-18T23:45:36.087Z,22.73
2018-10-18T23:48:10.683Z,23.37
2018-10-18T23:50:45.134Z,22.40
2018-10-18T23:53:19.640Z,24.93
2018-10-18T23:55:54.220Z,23.87
2018-10-18T23:58:28.616Z,24.30
